Clarinda, IA

5:08 PM CDT on March 28, 2017 (GMT -0500)
Schenck

Weather History for KICL - January, 2014

Change the Weather History Date:

Friday, January 24, 2014

  Actual Average Record
Temperature  
Mean Temperature 26 °F -  
Max Temperature 50 °F 33 °F 55 °F (2006)
Min Temperature 1 °F 15 °F -16 °F (2008)
Degree Days  
Heating Degree Days 40    
Moisture  
Dew Point 10 °F    
Average Humidity 49    
Maximum Humidity 72    
Minimum Humidity 33    
Precipitation  
Precipitation 0.00 in - - ()
Sea Level Pressure  
Sea Level Pressure 30.03 in    
Wind  
Wind Speed 13 mph (SW)    
Max Wind Speed 24 mph    
Max Gust Speed 33 mph    
Visibility 10 miles    
Events      
Averages and records for this station are not official NWS values.
T = Trace of Precipitation, MM = Missing Value Source: NWS Daily Summary

Daily Weather History Graph

Daily Weather History Graph

Search for Another Location

Airport or City:

Trip Planner

Search our weather history database for the weather conditions in past years. The results will help you decide how hot, cold, wet, or windy it might be!

Date:

Astronomy

Jan. 24, 2014 Rise Set
Actual Time 7:36 AM CST 5:28 PM CST
Civil Twilight 7:07 AM CST 5:57 PM CST
Nautical Twilight 6:34 AM CST 6:30 PM CST
Astronomical Twilight 6:01 AM CST 7:03 PM CST
Moon 1:04 AM CST (1/24) 11:47 AM CST (1/24)
Length of Visible Light 10h 50m
Length of Day
9h 51m
Last Quarter, 44% of the Moon is Illuminated
Jan 24
Last Quarter
Jan 30
New
Feb 6
First Quarter
Feb 14
Full
Feb 22
Last Quarter

Hourly Weather History & Observations

Time (CST) Temp. Windchill Dew Point Humidity Pressure Visibility Wind Dir Wind Speed Gust Speed Precip Events Conditions
12:15 AM 1.4 °F -11.3 °F -5.8 °F 72% 30.54 in 10.0 mi South 6.9 mph - N/A   Clear
12:35 AM 3.2 °F -10.3 °F -5.8 °F 66% 30.52 in 10.0 mi South 8.1 mph - N/A   Clear
12:55 AM 5.0 °F -8.1 °F -4.0 °F 66% 30.51 in 10.0 mi South 8.1 mph - N/A   Clear
1:15 AM 3.2 °F -12.2 °F -4.0 °F 72% 30.49 in 10.0 mi South 10.4 mph - N/A   Clear
1:35 AM 5.0 °F -10.8 °F -4.0 °F 66% 30.48 in - South 11.5 mph - N/A   Clear
1:55 AM 5.0 °F -9.1 °F -4.0 °F 66% 30.47 in 10.0 mi South 9.2 mph - N/A   Clear
2:15 AM 5.0 °F -10.8 °F -4.0 °F 66% 30.46 in 10.0 mi South 11.5 mph - N/A   Clear
2:35 AM 5.0 °F -9.1 °F -2.2 °F 72% 30.43 in 10.0 mi South 9.2 mph - N/A   Clear
2:55 AM 6.8 °F -7.8 °F -2.2 °F 67% 30.42 in 10.0 mi South 10.4 mph - N/A   Clear
3:15 AM 8.6 °F -7.0 °F -2.2 °F 62% 30.41 in 10.0 mi South 12.7 mph - N/A   Clear
3:35 AM 8.6 °F -5.5 °F -2.2 °F 62% 30.39 in 10.0 mi South 10.4 mph - N/A   Clear
3:55 AM 10.4 °F -5.4 °F -2.2 °F 57% 30.36 in 10.0 mi SSW 13.8 mph - N/A   Clear
4:15 AM 10.4 °F -4.8 °F -2.2 °F 57% 30.33 in 10.0 mi South 12.7 mph 19.6 mph N/A   Clear
4:35 AM 10.4 °F -4.8 °F -2.2 °F 57% 30.31 in 10.0 mi South 12.7 mph - N/A   Clear
4:55 AM 10.4 °F -4.8 °F -2.2 °F 57% 30.29 in 10.0 mi South 12.7 mph - N/A   Clear
5:15 AM 12.2 °F -3.1 °F -2.2 °F 53% 30.28 in 10.0 mi SSW 13.8 mph - N/A   Clear
5:35 AM 12.2 °F -4.3 °F -2.2 °F 53% 30.25 in 10.0 mi SSW 16.1 mph 21.9 mph N/A   Clear
5:55 AM 12.2 °F -3.1 °F -0.4 °F 57% 30.25 in 10.0 mi SSW 13.8 mph 19.6 mph N/A   Clear
6:15 AM 12.2 °F -1.8 °F -0.4 °F 57% 30.25 in 10.0 mi SSW 11.5 mph - N/A   Clear
6:35 AM 14.0 °F -0.8 °F -0.4 °F 53% 30.23 in 10.0 mi SSW 13.8 mph 20.7 mph N/A   Clear
6:55 AM 14.0 °F -0.2 °F -0.4 °F 53% 30.22 in 10.0 mi SSW 12.7 mph - N/A   Clear
7:15 AM 14.0 °F 0.5 °F -0.4 °F 53% 30.20 in 10.0 mi South 11.5 mph - N/A   Clear
7:35 AM 14.0 °F -0.8 °F 1.4 °F 57% 30.18 in 10.0 mi South 13.8 mph - N/A   Clear
7:55 AM 14.0 °F -0.2 °F 1.4 °F 57% 30.17 in 10.0 mi SSW 12.7 mph 18.4 mph N/A   Clear
8:15 AM 15.8 °F -0.2 °F 1.4 °F 53% 30.15 in 10.0 mi SSW 17.3 mph - N/A   Clear
8:35 AM 17.6 °F 1.7 °F 3.2 °F 53% 30.14 in 10.0 mi SSW 18.4 mph 25.3 mph N/A   Clear
8:55 AM 19.4 °F 5.0 °F 3.2 °F 49% 30.13 in 10.0 mi SSW 16.1 mph 25.3 mph N/A   Clear
9:15 AM 21.2 °F 6.0 °F 5.0 °F 50% 30.11 in 10.0 mi SSW 19.6 mph 25.3 mph N/A   Clear
9:35 AM 23.0 °F 8.0 °F 6.8 °F 50% 30.10 in 10.0 mi SW 20.7 mph 27.6 mph N/A   Clear
9:55 AM 24.8 °F 10.0 °F 6.8 °F 46% 30.09 in 10.0 mi SW 21.9 mph 32.2 mph N/A   Clear
10:15 AM 26.6 °F 11.7 °F 6.8 °F 43% 30.08 in 9.0 mi SW 24.2 mph 33.4 mph N/A   Clear
10:35 AM 28.4 °F 14.4 °F 8.6 °F 43% 30.07 in 10.0 mi SW 23.0 mph 31.1 mph N/A   Clear
10:55 AM 28.4 °F 15.1 °F 8.6 °F 43% 30.06 in 10.0 mi SW 20.7 mph 31.1 mph N/A   Clear
11:15 AM 30.2 °F 18.5 °F 8.6 °F 40% 30.04 in 10.0 mi SW 17.3 mph 29.9 mph N/A   Clear
11:35 AM 32.0 °F 19.8 °F 8.6 °F 38% 30.03 in 10.0 mi SW 20.7 mph 28.8 mph N/A   Clear
11:55 AM 32.0 °F 19.8 °F 8.6 °F 38% 30.01 in 10.0 mi SW 20.7 mph 29.9 mph N/A   Clear
12:15 PM 33.8 °F 21.6 °F 8.6 °F 35% 29.98 in 10.0 mi SW 23.0 mph - N/A   Clear
12:35 PM 35.6 °F 25.2 °F 10.4 °F 35% 29.97 in 10.0 mi WSW 18.4 mph 25.3 mph N/A   Clear
12:55 PM 35.6 °F 24.2 °F 10.4 °F 35% 29.95 in 10.0 mi WSW 21.9 mph 31.1 mph N/A   Scattered Clouds
1:15 PM 37.4 °F 27.5 °F 10.4 °F 33% 29.93 in 10.0 mi WSW 18.4 mph 27.6 mph N/A   Mostly Cloudy
1:35 PM 37.4 °F 26.6 °F 10.4 °F 33% 29.92 in 10.0 mi SW 21.9 mph 28.8 mph N/A   Partly Cloudy
1:55 PM 39.2 °F 29.8 °F 12.2 °F 33% 29.90 in 10.0 mi SW 18.4 mph 24.2 mph N/A   Mostly Cloudy
2:15 PM 39.2 °F 29.8 °F 12.2 °F 33% 29.89 in 10.0 mi WSW 18.4 mph 26.5 mph N/A   Overcast
2:35 PM 39.2 °F 30.2 °F 14.0 °F 36% 29.88 in 10.0 mi SW 17.3 mph 24.2 mph N/A   Overcast
2:55 PM 41.0 °F 32.2 °F 14.0 °F 33% 29.86 in 10.0 mi SW 18.4 mph - N/A   Mostly Cloudy
3:15 PM 41.0 °F 32.5 °F 14.0 °F 33% 29.86 in 10.0 mi SW 17.3 mph 23.0 mph N/A   Scattered Clouds
3:35 PM 41.0 °F 33.1 °F 14.0 °F 33% 29.85 in 10.0 mi SW 15.0 mph 21.9 mph N/A   Clear
3:55 PM 41.0 °F 33.9 °F 14.0 °F 33% 29.83 in 10.0 mi SW 12.7 mph 19.6 mph N/A   Clear
4:15 PM 41.0 °F 33.9 °F 15.8 °F 36% 29.83 in 10.0 mi SSW 12.7 mph 20.7 mph N/A   Clear
4:35 PM 41.0 °F 32.8 °F 15.8 °F 36% 29.83 in 10.0 mi SW 16.1 mph - N/A   Scattered Clouds
4:55 PM 41.0 °F 32.8 °F 15.8 °F 36% 29.82 in 10.0 mi SW 16.1 mph 21.9 mph N/A   Overcast
5:15 PM 41.0 °F 32.5 °F 15.8 °F 36% 29.80 in 10.0 mi SSW 17.3 mph - N/A   Overcast
5:35 PM 39.2 °F 30.2 °F 17.6 °F 42% 29.79 in 10.0 mi SSW 17.3 mph 23.0 mph N/A   Overcast
5:55 PM 41.0 °F 32.2 °F 17.6 °F 39% 29.79 in 10.0 mi SSW 18.4 mph 25.3 mph N/A   Overcast
6:15 PM 39.2 °F 30.2 °F 17.6 °F 42% 29.77 in 10.0 mi SW 17.3 mph - N/A   Overcast
6:35 PM 39.2 °F 29.8 °F 17.6 °F 42% 29.76 in 10.0 mi SW 18.4 mph 26.5 mph N/A   Overcast
6:55 PM 41.0 °F 32.8 °F 17.6 °F 39% 29.75 in 10.0 mi SW 16.1 mph 24.2 mph N/A   Overcast
7:15 PM 41.0 °F 33.1 °F 17.6 °F 39% 29.75 in 10.0 mi SW 15.0 mph 23.0 mph N/A   Overcast
7:35 PM 42.8 °F 35.8 °F 19.4 °F 39% 29.73 in 10.0 mi SW 13.8 mph - N/A   Overcast
7:55 PM 42.8 °F 37.0 °F 21.2 °F 42% 29.73 in 10.0 mi WSW 10.4 mph 19.6 mph N/A   Overcast
8:15 PM 41.0 °F 35.8 °F 23.0 °F 49% 29.72 in 10.0 mi WSW 8.1 mph - N/A   Overcast
8:35 PM 41.0 °F 35.2 °F 24.8 °F 53% 29.72 in 10.0 mi WSW 9.2 mph 15.0 mph N/A   Overcast
8:55 PM 42.8 °F 37.5 °F 26.6 °F 53% 29.71 in 10.0 mi WSW 9.2 mph - N/A   Overcast
9:15 PM 42.8 °F 37.0 °F 28.4 °F 57% 29.70 in 10.0 mi WSW 10.4 mph - N/A   Mostly Cloudy
9:35 PM 44.6 °F 39.2 °F 30.2 °F 57% 29.69 in 10.0 mi WSW 10.4 mph - N/A   Overcast
9:55 PM 46.4 °F 40.7 °F 32.0 °F 57% 29.69 in 10.0 mi West 12.7 mph - N/A   Overcast
10:15 PM 48.2 °F - 35.6 °F 62% 29.70 in 10.0 mi West 12.7 mph - N/A   Overcast
10:35 PM 50.0 °F - 35.6 °F 58% 29.70 in 10.0 mi WNW 13.8 mph - N/A   Overcast
10:55 PM 50.0 °F - 35.6 °F 58% 29.70 in 10.0 mi WNW 15.0 mph 23.0 mph N/A   Overcast
11:15 PM 50.0 °F - 35.6 °F 58% 29.71 in 10.0 mi WNW 17.3 mph 25.3 mph N/A   Overcast
11:35 PM 50.0 °F - 35.6 °F 58% 29.72 in 10.0 mi NW 12.7 mph 25.3 mph N/A   Overcast
11:55 PM 50.0 °F - 33.8 °F 54% 29.73 in 10.0 mi NW 19.6 mph 29.9 mph N/A   Overcast